Terminal Aerodrome Forecast
Issued by NWS

Home | Current Version | Previous Version | Text Only | Print | Product List | Glossary On
Versions: 1 2 3 4 5 6 7 8 9 10 11 12 13 14 15 16 17 18 19
010
FTUS44 KTSA 240520
TAFMLC
TAF
KMLC 240520Z 2406/2506 18009KT P6SM SCT250
     FM241600 19011G18KT P6SM FEW050
     FM250100 17006KT P6SM SKC=

USA.gov is the U.S. government's official web portal to all federal, state and local government web resources and services.